createdAt,value
2019-06-07T00:00:44.368Z,101491.31
2019-06-07T00:03:23.889Z,101488.64
2019-06-07T00:05:44.061Z,101492.16
2019-06-07T00:08:22.682Z,101499.48
2019-06-07T00:10:44.007Z,101492.31
2019-06-07T00:13:17.098Z,101488.08
2019-06-07T00:15:43.706Z,101490.36
2019-06-07T00:18:15.035Z,101496.84
2019-06-07T00:20:43.737Z,101494.45
2019-06-07T00:23:15.886Z,101497.48
2019-06-07T00:25:43.517Z,101498.80
2019-06-07T00:28:13.385Z,101501.05
2019-06-07T00:30:51.752Z,101498.32
2019-06-07T00:33:18.392Z,101498.85
2019-06-07T00:35:45.157Z,101498.90
2019-06-07T00:38:14.394Z,101493.25
2019-06-07T00:40:43.816Z,101493.09
2019-06-07T00:43:15.172Z,101502.03
2019-06-07T00:45:43.517Z,101503.11
2019-06-07T00:48:19.639Z,101503.11
2019-06-07T00:50:43.318Z,101505.52
2019-06-07T00:53:17.519Z,101503.17
2019-06-07T00:55:43.396Z,101506.25
2019-06-07T00:58:13.590Z,101511.05
2019-06-07T01:00:43.466Z,101517.06
2019-06-07T01:03:12.772Z,101514.69
2019-06-07T01:05:41.896Z,101508.58
2019-06-07T01:08:10.926Z,101494.59
2019-06-07T01:10:52.884Z,101500.03
2019-06-07T01:13:10.712Z,101498.44
2019-06-07T01:15:39.846Z,101501.87
2019-06-07T01:18:36.055Z,101503.37
2019-06-07T01:20:39.628Z,101503.37
2019-06-07T01:23:51.928Z,101504.25
2019-06-07T01:25:39.378Z,101509.20
2019-06-07T01:28:08.480Z,101511.05
2019-06-07T01:30:37.490Z,101511.93
2019-06-07T01:33:06.552Z,101511.05
2019-06-07T01:35:35.583Z,101510.05
2019-06-07T01:38:04.599Z,101509.65
2019-06-07T01:40:33.679Z,101502.80
2019-06-07T01:43:02.702Z,101500.08
2019-06-07T01:45:31.741Z,101497.40
2019-06-07T01:48:01.074Z,101493.84
2019-06-07T01:50:30.935Z,101487.03
2019-06-07T01:52:59.952Z,101501.48
2019-06-07T01:55:32.619Z,101498.23
2019-06-07T01:57:59.737Z,101499.77
2019-06-07T02:00:32.314Z,101497.55
2019-06-07T02:02:59.755Z,101497.55
2019-06-07T02:05:30.951Z,101496.68
2019-06-07T02:07:59.808Z,101505.88
2019-06-07T02:10:33.180Z,101510.61
2019-06-07T02:12:59.624Z,101508.56
2019-06-07T02:15:35.837Z,101498.98
2019-06-07T02:17:59.449Z,101499.50
2019-06-07T02:20:33.506Z,101490.47
2019-06-07T02:22:59.424Z,101491.47
2019-06-07T02:25:38.349Z,101481.41
2019-06-07T02:28:26.068Z,101481.93
2019-06-07T02:30:47.659Z,101483.09
2019-06-07T02:33:00.729Z,101485.61
2019-06-07T02:35:34.902Z,101486.45
2019-06-07T02:38:00.525Z,101482.53
2019-06-07T02:40:35.998Z,101484.61
2019-06-07T02:43:00.400Z,101481.36
2019-06-07T02:45:36.166Z,101487.17
2019-06-07T02:48:00.740Z,101478.13
2019-06-07T02:50:35.445Z,101486.61
2019-06-07T02:53:00.468Z,101482.84
2019-06-07T02:55:33.772Z,101479.27
2019-06-07T02:58:00.278Z,101473.47
2019-06-07T03:01:06.577Z,101463.06
2019-06-07T03:03:28.356Z,101467.50
2019-06-07T03:05:57.137Z,101477.03
2019-06-07T03:08:30.961Z,101478.40
2019-06-07T03:11:01.526Z,101477.59
2019-06-07T03:13:36.710Z,101473.36
2019-06-07T03:16:06.918Z,101467.76
2019-06-07T03:19:07.073Z,101464.88
2019-06-07T03:21:41.702Z,101463.36
2019-06-07T03:24:10.362Z,101468.64
2019-06-07T03:27:30.332Z,101468.92
2019-06-07T03:29:11.167Z,101479.43
2019-06-07T03:31:47.145Z,101479.11
2019-06-07T03:34:10.873Z,101485.77
2019-06-07T03:36:40.389Z,101487.48
2019-06-07T03:39:09.488Z,101486.01
2019-06-07T03:41:49.858Z,101481.66
2019-06-07T03:44:09.260Z,101481.86
2019-06-07T03:46:41.478Z,101476.66
2019-06-07T03:49:09.095Z,101474.34
2019-06-07T03:51:40.537Z,101472.89
2019-06-07T03:54:08.873Z,101466.12
2019-06-07T03:56:40.791Z,101475.53
2019-06-07T03:59:08.651Z,101486.17
2019-06-07T04:01:41.050Z,101487.92
2019-06-07T04:04:08.841Z,101495.13
2019-06-07T04:06:41.963Z,101487.34
2019-06-07T04:09:09.172Z,101491.49
2019-06-07T04:11:39.522Z,101495.45
2019-06-07T04:14:08.973Z,101489.17
2019-06-07T04:16:41.679Z,101493.94
2019-06-07T04:19:08.769Z,101491.25
2019-06-07T04:21:42.146Z,101492.99
2019-06-07T04:24:08.540Z,101485.87
2019-06-07T04:26:43.087Z,101491.02
2019-06-07T04:29:32.449Z,101497.86
2019-06-07T04:31:42.879Z,101493.16
2019-06-07T04:34:10.443Z,101491.48
2019-06-07T04:36:55.191Z,101490.84
2019-06-07T04:39:10.634Z,101498.06
2019-06-07T04:41:41.419Z,101502.52
2019-06-07T04:44:11.781Z,101496.55
2019-06-07T04:46:43.303Z,101491.06
2019-06-07T04:49:15.571Z,101495.31
2019-06-07T04:51:45.842Z,101508.88
2019-06-07T04:54:14.823Z,101511.25
2019-06-07T04:56:44.865Z,101510.88
2019-06-07T05:00:00.142Z,101514.94
2019-06-07T05:01:44.792Z,101524.42
2019-06-07T05:04:13.830Z,101516.98
2019-06-07T05:06:42.847Z,101516.91
2019-06-07T05:09:11.862Z,101521.04
2019-06-07T05:11:44.933Z,101511.86
2019-06-07T05:14:11.640Z,101508.62
2019-06-07T05:16:43.892Z,101509.66
2019-06-07T05:19:11.418Z,101513.20
2019-06-07T05:21:59.873Z,101517.95
2019-06-07T05:24:11.156Z,101512.89
2019-06-07T05:26:42.506Z,101521.55
2019-06-07T05:29:10.954Z,101513.66
2019-06-07T05:31:44.938Z,101510.02
2019-06-07T05:34:10.825Z,101511.78
2019-06-07T05:36:44.319Z,101503.14
2019-06-07T05:39:10.954Z,101507.85
2019-06-07T05:41:43.749Z,101503.05
2019-06-07T05:44:12.945Z,101498.56
2019-06-07T05:46:46.695Z,101495.88
2019-06-07T05:49:12.597Z,101492.39
2019-06-07T05:51:44.837Z,101487.78
2019-06-07T05:54:12.465Z,101484.52
2019-06-07T05:56:43.273Z,101484.45
2019-06-07T05:59:12.142Z,101474.72
2019-06-07T06:01:52.355Z,101464.70
2019-06-07T06:04:11.841Z,101467.87
2019-06-07T06:06:44.764Z,101461.55
2019-06-07T06:09:14.155Z,101463.31
2019-06-07T06:11:54.717Z,101476.62
2019-06-07T06:14:13.020Z,101482.62
2019-06-07T06:16:44.458Z,101490.48
2019-06-07T06:19:12.788Z,101502.08
2019-06-07T06:21:45.236Z,101502.73
2019-06-07T06:24:12.845Z,101510.11
2019-06-07T06:26:49.887Z,101511.27
2019-06-07T06:29:12.625Z,101509.64
2019-06-07T06:32:28.250Z,101513.52
2019-06-07T06:34:12.369Z,101515.89
2019-06-07T06:36:45.581Z,101509.22
2019-06-07T06:39:12.151Z,101526.52
2019-06-07T06:41:53.755Z,101536.86
2019-06-07T06:44:11.984Z,101545.55
2019-06-07T06:46:46.681Z,101544.34
2019-06-07T06:49:11.741Z,101535.34
2019-06-07T06:51:43.045Z,101536.13
2019-06-07T06:54:11.487Z,101549.64
2019-06-07T06:56:43.959Z,101545.50
2019-06-07T06:59:38.709Z,101548.50
2019-06-07T07:01:42.576Z,101543.94
2019-06-07T07:04:13.580Z,101543.05
2019-06-07T07:06:43.283Z,101541.58
2019-06-07T07:09:12.387Z,101538.15
2019-06-07T07:11:57.512Z,101536.48
2019-06-07T07:14:12.553Z,101537.28
2019-06-07T07:16:44.950Z,101542.36
2019-06-07T07:19:13.122Z,101537.43
2019-06-07T07:21:42.178Z,101538.05
2019-06-07T07:24:21.587Z,101536.03
2019-06-07T07:26:45.259Z,101533.56
2019-06-07T07:29:13.532Z,101532.07
2019-06-07T07:31:43.014Z,101539.50
2019-06-07T07:34:32.522Z,101539.98
2019-06-07T07:36:44.847Z,101544.06
2019-06-07T07:39:13.817Z,101536.76
2019-06-07T07:42:04.687Z,101532.14
2019-06-07T07:44:13.512Z,101529.81
2019-06-07T07:46:43.347Z,101525.22
2019-06-07T07:49:13.238Z,101530.39
2019-06-07T07:51:42.233Z,101525.88
2019-06-07T07:54:11.460Z,101524.50
2019-06-07T07:56:40.557Z,101529.13
2019-06-07T07:59:10.018Z,101523.48
2019-06-07T08:01:39.134Z,101526.69
2019-06-07T08:04:08.158Z,101528.68
2019-06-07T08:06:37.208Z,101526.30
2019-06-07T08:09:07.872Z,101515.41
2019-06-07T08:11:36.929Z,101519.58
2019-06-07T08:14:05.944Z,101522.20
2019-06-07T08:16:34.948Z,101525.35
2019-06-07T08:19:04.679Z,101520.45
2019-06-07T08:21:33.783Z,101516.87
2019-06-07T08:24:04.833Z,101514.11
2019-06-07T08:26:33.576Z,101515.32
2019-06-07T08:29:03.185Z,101514.38
2019-06-07T08:31:32.404Z,101515.64
2019-06-07T08:34:01.416Z,101512.02
2019-06-07T08:36:41.442Z,101510.41
2019-06-07T08:39:07.397Z,101510.44
2019-06-07T08:41:31.950Z,101506.15
2019-06-07T08:44:21.774Z,101509.20
2019-06-07T08:46:31.722Z,101513.50
2019-06-07T08:49:04.002Z,101514.67
2019-06-07T08:51:31.484Z,101505.89
2019-06-07T08:54:21.145Z,101511.80
2019-06-07T08:56:31.185Z,101510.80
2019-06-07T08:59:10.312Z,101517.02
2019-06-07T09:01:30.964Z,101517.03
2019-06-07T09:04:06.470Z,101510.11
2019-06-07T09:09:03.608Z,101508.81
2019-06-07T09:11:32.283Z,101513.40
2019-06-07T09:14:04.831Z,101517.22
2019-06-07T09:16:32.060Z,101513.62
2019-06-07T09:19:05.915Z,101514.80
2019-06-07T09:21:31.814Z,101507.90
2019-06-07T09:24:07.045Z,101501.71
2019-06-07T09:26:31.561Z,101492.30
2019-06-07T09:29:05.414Z,101490.28
2019-06-07T09:31:51.037Z,101491.56
2019-06-07T09:34:08.312Z,101488.80
2019-06-07T09:36:33.272Z,101487.73
2019-06-07T09:39:08.249Z,101489.55
2019-06-07T09:41:47.437Z,101483.92
2019-06-07T09:44:22.891Z,101484.75
2019-06-07T09:46:36.857Z,101477.12
2019-06-07T09:49:18.376Z,101468.22
2019-06-07T09:51:36.740Z,101470.16
2019-06-07T09:54:08.613Z,101471.30
2019-06-07T09:56:36.695Z,101460.75
2019-06-07T09:59:07.456Z,101455.70
2019-06-07T10:01:36.887Z,101461.32
2019-06-07T10:04:11.990Z,101459.08
2019-06-07T10:06:36.961Z,101461.08
2019-06-07T10:11:38.768Z,101450.47
2019-06-07T10:14:08.777Z,101452.28
2019-06-07T10:16:46.917Z,101451.34
2019-06-07T10:19:09.863Z,101445.53
2019-06-07T10:21:39.073Z,101441.77
2019-06-07T10:24:08.066Z,101443.36
2019-06-07T10:26:37.539Z,101433.41
2019-06-07T10:29:07.238Z,101431.99
2019-06-07T10:31:37.316Z,101432.27
2019-06-07T10:34:06.688Z,101435.05
2019-06-07T10:36:35.736Z,101439.95
2019-06-07T10:39:06.948Z,101429.24
2019-06-07T10:41:36.045Z,101430.96
2019-06-07T10:44:05.545Z,101415.27
2019-06-07T10:46:34.687Z,101415.27
2019-06-07T10:49:03.879Z,101422.95
2019-06-07T10:51:32.897Z,101421.57
2019-06-07T10:54:19.166Z,101416.98
2019-06-07T10:56:32.738Z,101416.33
2019-06-07T10:59:03.095Z,101403.36
2019-06-07T11:01:32.178Z,101408.95
2019-06-07T11:04:01.210Z,101406.52
2019-06-07T11:06:30.255Z,101404.48
2019-06-07T11:08:59.296Z,101399.31
2019-06-07T11:11:28.374Z,101399.83
2019-06-07T11:13:57.626Z,101401.84
2019-06-07T11:16:26.651Z,101398.05
2019-06-07T11:18:56.433Z,101392.75
2019-06-07T11:21:26.453Z,101388.05
2019-06-07T11:23:56.447Z,101392.80
2019-06-07T11:26:26.685Z,101374.79
2019-06-07T11:28:56.479Z,101359.98
2019-06-07T11:31:26.561Z,101365.72
2019-06-07T11:33:56.526Z,101365.17
2019-06-07T11:36:26.583Z,101369.05
2019-06-07T11:38:56.549Z,101354.97
2019-06-07T11:41:26.588Z,101359.81
2019-06-07T11:43:55.527Z,101358.61
2019-06-07T11:46:24.573Z,101352.17
2019-06-07T11:48:53.586Z,101350.79
2019-06-07T11:51:22.627Z,101349.91
2019-06-07T11:53:51.585Z,101352.12
2019-06-07T11:56:20.633Z,101354.89
2019-06-07T11:58:49.948Z,101350.66
2019-06-07T12:01:18.970Z,101351.00
2019-06-07T12:03:48.037Z,101348.02
2019-06-07T12:06:18.122Z,101338.55
2019-06-07T12:08:47.732Z,101351.05
2019-06-07T12:11:16.751Z,101350.72
2019-06-07T12:13:45.791Z,101350.50
2019-06-07T12:16:15.368Z,101345.86
2019-06-07T12:18:44.886Z,101345.33
2019-06-07T12:21:13.926Z,101343.95
2019-06-07T12:23:42.947Z,101335.49
2019-06-07T12:26:12.310Z,101330.03
2019-06-07T12:28:41.396Z,101330.48
2019-06-07T12:31:10.888Z,101320.88
2019-06-07T12:33:39.989Z,101319.33
2019-06-07T12:36:09.094Z,101309.59
2019-06-07T12:38:38.120Z,101303.63
2019-06-07T12:41:07.159Z,101305.59
2019-06-07T12:43:36.558Z,101301.36
2019-06-07T12:46:05.630Z,101310.09
2019-06-07T12:48:34.633Z,101305.42
2019-06-07T12:51:04.069Z,101300.91
2019-06-07T12:53:33.054Z,101306.88
2019-06-07T12:56:02.086Z,101303.60
2019-06-07T12:58:36.254Z,101302.87
2019-06-07T13:01:01.889Z,101299.58
2019-06-07T13:03:30.921Z,101296.51
2019-06-07T13:05:59.976Z,101302.73
2019-06-07T13:08:28.975Z,101302.22
2019-06-07T13:11:13.939Z,101291.83
2019-06-07T13:13:28.795Z,101285.78
2019-06-07T13:15:57.841Z,101279.94
2019-06-07T13:18:28.553Z,101257.27
2019-06-07T13:20:57.972Z,101273.06
2019-06-07T13:23:28.982Z,101267.80
2019-06-07T13:25:58.150Z,101269.26
2019-06-07T13:28:28.997Z,101269.00
2019-06-07T13:30:58.386Z,101267.96
2019-06-07T13:33:35.197Z,101265.70
2019-06-07T13:35:58.614Z,101257.00
2019-06-07T13:38:29.120Z,101250.41
2019-06-07T13:40:58.533Z,101239.50
2019-06-07T13:43:28.170Z,101246.69
2019-06-07T13:45:57.633Z,101248.77
2019-06-07T13:48:27.824Z,101236.06
2019-06-07T13:50:58.083Z,101245.09
2019-06-07T13:53:29.069Z,101247.36
2019-06-07T13:55:58.111Z,101246.91
2019-06-07T13:58:28.707Z,101236.64
2019-06-07T14:00:57.866Z,101238.55
2019-06-07T14:03:32.723Z,101232.29
2019-06-07T14:05:58.669Z,101228.20
2019-06-07T14:08:29.674Z,101228.55
2019-06-07T14:10:58.806Z,101218.81
2019-06-07T14:13:28.128Z,101217.83
2019-06-07T14:15:57.933Z,101205.89
2019-06-07T14:18:28.751Z,101207.70
2019-06-07T14:20:59.006Z,101202.45
2019-06-07T14:23:46.185Z,101210.88
2019-06-07T14:25:58.994Z,101212.31
2019-06-07T14:28:31.836Z,101209.72
2019-06-07T14:30:58.939Z,101214.04
2019-06-07T14:33:30.006Z,101211.03
2019-06-07T14:35:58.869Z,101202.73
2019-06-07T14:38:30.182Z,101217.05
2019-06-07T14:40:58.978Z,101218.37
2019-06-07T14:43:29.513Z,101219.70
2019-06-07T14:45:58.665Z,101210.37
2019-06-07T14:48:28.384Z,101225.34
2019-06-07T14:50:58.351Z,101212.19
2019-06-07T14:53:28.607Z,101214.32
2019-06-07T14:55:58.190Z,101209.67
2019-06-07T14:58:27.224Z,101207.19
2019-06-07T15:00:56.251Z,101195.84
2019-06-07T15:03:26.369Z,101198.30
2019-06-07T15:05:55.476Z,101194.52
2019-06-07T15:08:24.512Z,101190.91
2019-06-07T15:10:53.562Z,101189.98
2019-06-07T15:13:22.609Z,101182.97
2019-06-07T15:15:51.638Z,101176.21
2019-06-07T15:18:20.760Z,101177.11
2019-06-07T15:20:49.794Z,101179.58
2019-06-07T15:23:18.827Z,101178.48
2019-06-07T15:25:47.949Z,101176.19
2019-06-07T15:28:16.990Z,101172.05
2019-06-07T15:30:46.152Z,101166.76
2019-06-07T15:33:15.103Z,101155.96
2019-06-07T15:35:44.158Z,101146.10
2019-06-07T15:38:13.175Z,101144.96
2019-06-07T15:40:42.218Z,101147.40
2019-06-07T15:43:11.258Z,101136.28
2019-06-07T15:45:40.289Z,101140.92
2019-06-07T15:48:09.341Z,101144.41
2019-06-07T15:50:38.447Z,101137.84
2019-06-07T15:53:07.497Z,101131.28
2019-06-07T15:55:39.573Z,101123.05
2019-06-07T15:58:07.329Z,101119.84
2019-06-07T16:00:37.418Z,101117.11
2019-06-07T16:03:06.592Z,101103.66
2019-06-07T16:05:36.410Z,101114.66
2019-06-07T16:08:05.665Z,101109.38
2019-06-07T16:10:34.725Z,101098.68
2019-06-07T16:13:03.782Z,101110.72
2019-06-07T16:15:33.062Z,101089.00
2019-06-07T16:18:02.686Z,101091.10
2019-06-07T16:20:33.122Z,101108.02
2019-06-07T16:23:02.297Z,101100.78
2019-06-07T16:25:31.309Z,101089.75
2019-06-07T16:28:00.664Z,101077.00
2019-06-07T16:30:29.716Z,101074.50
2019-06-07T16:32:59.324Z,101072.90
2019-06-07T16:35:29.037Z,101082.64
2019-06-07T16:37:59.023Z,101070.17
2019-06-07T16:40:29.071Z,101084.13
2019-06-07T16:43:16.235Z,101088.26
2019-06-07T16:45:30.280Z,101084.66
2019-06-07T16:47:59.367Z,101076.20
2019-06-07T16:50:29.140Z,101071.66
2019-06-07T16:52:59.489Z,101054.94
2019-06-07T16:55:29.158Z,101070.69
2019-06-07T16:57:59.242Z,101042.38
2019-06-07T17:00:29.081Z,101042.38
2019-06-07T17:02:59.111Z,101042.89
2019-06-07T17:05:29.127Z,101036.70
2019-06-07T17:07:59.145Z,101046.67
2019-06-07T17:10:29.181Z,101035.53
2019-06-07T17:12:59.211Z,101035.95
2019-06-07T17:15:29.177Z,101044.56
2019-06-07T17:17:59.220Z,101047.30
2019-06-07T17:20:29.529Z,101030.45
2019-06-07T17:22:59.271Z,101029.08
2019-06-07T17:25:28.274Z,101022.71
2019-06-07T17:27:57.307Z,101013.56
2019-06-07T17:30:26.400Z,101018.88
2019-06-07T17:32:59.216Z,101008.88
2019-06-07T17:35:26.161Z,101007.98
2019-06-07T17:37:55.200Z,100999.95
2019-06-07T17:40:24.217Z,100999.00
2019-06-07T17:42:53.263Z,101010.83
2019-06-07T17:45:22.460Z,101001.19
2019-06-07T17:47:52.074Z,100996.94
2019-06-07T17:50:21.637Z,100996.39
2019-06-07T17:52:51.799Z,101003.27
2019-06-07T17:55:21.568Z,101010.81
2019-06-07T17:57:50.942Z,100988.86
2019-06-07T18:00:29.059Z,100987.09
2019-06-07T18:02:53.054Z,100988.80
2019-06-07T18:05:22.399Z,100973.26
2019-06-07T18:07:53.898Z,100986.11
2019-06-07T18:10:35.135Z,100964.69
2019-06-07T18:13:04.647Z,100959.61
2019-06-07T18:15:44.637Z,100956.45
2019-06-07T18:18:14.285Z,100961.80
2019-06-07T18:20:45.092Z,100967.51
2019-06-07T18:23:14.208Z,100980.35
2019-06-07T18:25:43.266Z,100974.45
2019-06-07T18:28:12.688Z,100973.92
2019-06-07T18:30:41.716Z,100980.44
2019-06-07T18:33:10.757Z,100989.95
2019-06-07T18:35:39.791Z,101000.59
2019-06-07T18:38:10.844Z,100995.17
2019-06-07T18:40:39.626Z,100994.84
2019-06-07T18:43:08.664Z,100989.52
2019-06-07T18:45:37.674Z,100983.95
2019-06-07T18:48:06.750Z,100976.09
2019-06-07T18:50:36.040Z,100972.11
2019-06-07T18:53:05.126Z,100963.11
2019-06-07T18:55:34.174Z,100956.98
2019-06-07T18:58:03.202Z,100967.61
2019-06-07T19:00:32.958Z,100971.94
2019-06-07T19:03:02.411Z,100980.71
2019-06-07T19:05:31.454Z,100979.81
2019-06-07T19:08:00.885Z,100975.10
2019-06-07T19:10:30.034Z,100972.50
2019-06-07T19:13:00.678Z,100967.20
2019-06-07T19:15:30.281Z,100959.67
2019-06-07T19:18:00.957Z,100964.09
2019-06-07T19:20:30.181Z,100968.70
2019-06-07T19:23:00.533Z,100959.39
2019-06-07T19:25:29.902Z,100954.75
2019-06-07T19:28:01.090Z,100961.98
2019-06-07T19:30:30.164Z,100956.95
2019-06-07T19:33:01.399Z,100953.91
2019-06-07T19:35:30.674Z,100966.28
2019-06-07T19:38:00.106Z,100961.97
2019-06-07T19:40:30.010Z,100958.20
2019-06-07T19:43:00.641Z,100971.07
2019-06-07T19:45:31.445Z,100970.58
2019-06-07T19:48:00.889Z,100975.85
2019-06-07T19:50:30.089Z,100975.52
2019-06-07T19:53:01.254Z,100973.16
2019-06-07T19:55:30.402Z,100967.35
2019-06-07T19:58:01.753Z,100984.75
2019-06-07T20:00:30.996Z,100977.80
2019-06-07T20:03:00.147Z,100978.98
2019-06-07T20:05:33.701Z,100985.67
2019-06-07T20:08:02.615Z,100994.77
2019-06-07T20:10:31.855Z,100988.80
2019-06-07T20:13:00.948Z,100991.34
2019-06-07T20:15:30.279Z,101003.65
2019-06-07T20:18:01.245Z,101004.44
2019-06-07T20:20:30.510Z,100982.41
2019-06-07T20:23:00.952Z,100988.55
2019-06-07T20:25:30.318Z,100988.31
2019-06-07T20:28:01.417Z,100988.74
2019-06-07T20:30:31.188Z,100978.89
2019-06-07T20:33:01.740Z,100992.91
2019-06-07T20:35:31.023Z,100994.86
2019-06-07T20:38:01.074Z,101007.03
2019-06-07T20:40:30.437Z,100997.89
2019-06-07T20:43:01.502Z,100993.94
2019-06-07T20:45:34.108Z,100977.17
2019-06-07T20:48:02.097Z,100982.95
2019-06-07T20:50:31.136Z,100956.27
2019-06-07T20:53:01.380Z,100956.84
2019-06-07T20:55:31.308Z,100956.27
2019-06-07T20:58:00.905Z,100963.30
2019-06-07T21:00:30.523Z,100961.72
2019-06-07T21:03:01.135Z,100952.48
2019-06-07T21:05:30.538Z,100955.91
2019-06-07T21:08:01.854Z,100946.77
2019-06-07T21:10:31.019Z,100942.91
2019-06-07T21:13:01.954Z,100924.48
2019-06-07T21:15:31.171Z,100914.42
2019-06-07T21:18:00.685Z,100909.22
2019-06-07T21:20:33.870Z,100922.50
2019-06-07T21:23:02.754Z,100917.98
2019-06-07T21:25:31.964Z,100921.89
2019-06-07T21:28:01.026Z,100921.14
2019-06-07T21:30:30.978Z,100930.55
2019-06-07T21:33:01.377Z,100914.72
2019-06-07T21:35:31.076Z,100920.77
2019-06-07T21:38:01.934Z,100907.14
2019-06-07T21:40:30.998Z,100890.78
2019-06-07T21:43:02.000Z,100875.52
2019-06-07T21:45:31.316Z,100860.42
2019-06-07T21:48:03.179Z,100847.78
2019-06-07T21:50:31.923Z,100847.78
2019-06-07T21:53:00.936Z,100847.94
2019-06-07T21:55:31.153Z,100852.34
2019-06-07T21:58:00.895Z,100862.73
2019-06-07T22:01:18.058Z,100866.94
2019-06-07T22:03:47.233Z,100869.44
2019-06-07T22:06:16.313Z,100889.29
2019-06-07T22:08:45.401Z,100900.45
2019-06-07T22:11:14.421Z,100924.09
2019-06-07T22:13:43.482Z,100941.21
2019-06-07T22:16:26.549Z,100933.64
2019-06-07T22:18:43.675Z,100939.71
2019-06-07T22:21:12.792Z,100923.95
2019-06-07T22:23:43.730Z,100920.04
2019-06-07T22:26:13.270Z,100916.08
2019-06-07T22:28:42.281Z,100915.36
2019-06-07T22:31:12.828Z,100925.61
2019-06-07T22:33:41.889Z,100930.94
2019-06-07T22:36:11.086Z,100937.05
2019-06-07T22:38:40.182Z,100932.45
2019-06-07T22:41:09.469Z,100926.78
2019-06-07T22:43:38.431Z,100934.31
2019-06-07T22:46:08.634Z,100938.90
2019-06-07T22:48:37.688Z,100942.62
2019-06-07T22:51:09.477Z,100952.23
2019-06-07T22:53:42.518Z,100947.17
2019-06-07T22:56:37.688Z,100954.75
2019-06-07T22:59:07.954Z,100972.79
2019-06-07T23:01:37.548Z,100990.72
2019-06-07T23:04:06.601Z,100990.72
2019-06-07T23:06:35.618Z,100998.64
2019-06-07T23:09:05.699Z,101008.73
2019-06-07T23:11:34.758Z,101020.47
2019-06-07T23:14:04.060Z,101020.03
2019-06-07T23:16:33.032Z,101036.56
2019-06-07T23:19:02.080Z,101036.86
2019-06-07T23:21:31.585Z,101046.72
2019-06-07T23:24:01.548Z,101042.53
2019-06-07T23:26:31.594Z,101044.05
2019-06-07T23:29:01.540Z,101038.77
2019-06-07T23:31:31.618Z,101033.09
2019-06-07T23:34:01.667Z,101006.37
2019-06-07T23:36:31.928Z,100991.11
2019-06-07T23:39:01.672Z,100984.27
2019-06-07T23:41:31.676Z,100980.45
2019-06-07T23:44:01.627Z,100970.56
2019-06-07T23:46:31.701Z,100955.48
2019-06-07T23:49:01.757Z,100952.94
2019-06-07T23:51:31.759Z,100963.95
2019-06-07T23:54:01.832Z,100951.38
2019-06-07T23:56:31.799Z,100937.02
2019-06-07T23:59:01.813Z,100908.09
